Time;durP1;ratioP1;P1;durP2;ratioP2;P2;SDS_P1;SDS_P2;PMS_P1;PMS_P2;Temp;Humidity;BMP_temperature;BMP_pressure;BME280_temperature;BME280_humidity;BME280_pressure;Samples;Min_cycle;Max_cycle;Signal;HPM_P1;HPM_P2
2022/04/07 00:01:18;;;;;;;;;;;7.80;72.50;;;6.68;68.18;95290.56;4219343;33;19913;-88
2022/04/07 00:04:15;;;;;;;;;;;7.80;72.60;;;6.67;68.28;95272.59;4225101;33;19902;-88
2022/04/07 00:11:41;;;;;;;;;;;7.80;72.50;;;6.64;67.89;95267.72;4242254;33;19905;-87
2022/04/07 00:18:28;;;;;;;;;;;7.80;72.40;;;6.67;68.23;95255.50;4206029;33;19899;-88
2022/04/07 00:22:22;;;;;;;;;;;;;;;;;;;;;
2022/04/07 00:29:24;;;;;;;;;;;7.80;72.40;;;6.66;68.26;95237.53;4216545;33;19902;-87
2022/04/07 00:32:17;;;;;;;;;;;7.80;72.40;;;6.66;68.10;95237.53;4210665;33;20249;-88
2022/04/07 00:34:49;;;;;;;;;;;7.80;72.40;;;6.63;68.04;95232.63;4234255;33;20237;-86
2022/04/07 00:37:22;;;;;;;;;;;7.70;72.40;;;6.65;68.36;95225.81;4210289;33;19925;-87
2022/04/07 00:39:50;;;;;;;;;;;7.70;72.30;;;6.63;67.99;95224.47;4210582;33;19903;-87
2022/04/07 00:42:19;;;;;;;;;;;7.80;72.20;;;6.64;68.35;95224.22;4233268;33;19910;-87
2022/04/07 00:44:47;;;;;;;;;;;7.70;72.10;;;6.64;67.74;95224.22;4234217;33;20121;-87
2022/04/07 00:47:16;;;;;;;;;;;7.70;72.20;;;6.64;68.46;95221.50;4233536;33;19902;-86
2022/04/07 00:49:44;;;;;;;;;;;7.70;72.20;;;6.62;67.73;95220.94;4234049;33;19902;-86
2022/04/07 00:52:13;;;;;;;;;;;7.80;72.20;;;6.63;67.81;95222.59;4210332;33;20222;-87
2022/04/07 00:54:43;;;;;;;;;;;7.80;72.20;;;6.63;67.44;95213.59;4210521;33;19910;-87
2022/04/07 00:57:11;;;;;;;;;;;7.80;72.10;;;6.63;68.12;95203.53;4210211;33;19944;-87
2022/04/07 00:59:40;;;;;;;;;;;7.70;72.10;;;6.63;67.77;95205.44;4210453;33;19902;-86
2022/04/07 01:02:10;;;;;;;;;;;7.70;72.20;;;6.61;68.00;95197.56;4233850;33;20160;-87
2022/04/07 01:04:38;;;;;;;;;;;7.70;72.10;;;6.61;68.11;95200.28;4210424;33;19909;-88
2022/04/07 01:07:08;;;;;;;;;;;7.70;72.20;;;6.61;67.73;95178.53;4233400;33;20366;-86
2022/04/07 01:09:36;;;;;;;;;;;7.70;72.20;;;6.59;67.62;95181.50;4210417;33;19902;-87
2022/04/07 01:12:08;;;;;;;;;;;7.80;72.10;;;6.62;68.06;95187.47;4233673;33;20242;-88
2022/04/07 01:14:40;;;;;;;;;;;7.70;72.10;;;6.60;67.85;95182.31;4210351;33;19903;-86
2022/04/07 01:17:09;;;;;;;;;;;7.70;72.00;;;6.62;67.82;95187.47;4208985;33;19903;-88
2022/04/07 01:19:37;;;;;;;;;;;7.70;72.00;;;6.60;67.97;95174.16;4234546;33;19953;-86
2022/04/07 01:22:06;;;;;;;;;;;7.70;72.10;;;6.60;67.57;95179.59;4210176;33;19903;-87
2022/04/07 01:24:35;;;;;;;;;;;7.70;72.10;;;6.58;67.69;95162.75;4210069;33;19902;-87
2022/04/07 01:27:05;;;;;;;;;;;7.70;72.10;;;6.61;67.62;95170.38;4209729;33;20018;-87
2022/04/07 01:29:33;;;;;;;;;;;7.70;72.20;;;6.59;68.41;95165.19;4210174;33;20043;-86
2022/04/07 01:32:08;;;;;;;;;;;7.70;72.30;;;6.57;67.70;95161.09;4209971;33;20217;-87
2022/04/07 01:34:37;;;;;;;;;;;7.70;72.20;;;6.58;67.58;95163.53;4210160;33;19935;-88
2022/04/07 01:37:05;;;;;;;;;;;7.70;72.10;;;6.57;68.05;95163.81;4209741;33;20216;-88
2022/04/07 01:39:35;;;;;;;;;;;7.70;72.00;;;6.56;67.87;95163.03;4209897;33;20111;-87
2022/04/07 01:42:04;;;;;;;;;;;7.70;72.10;;;6.58;67.58;95168.19;4210015;33;20389;-86
2022/04/07 01:44:33;;;;;;;;;;;7.70;72.00;;;6.57;67.98;95153.78;4233376;33;20260;-87
2022/04/07 01:47:02;;;;;;;;;;;7.70;72.10;;;6.57;67.67;95145.63;4209647;33;20210;-85
2022/04/07 01:49:30;;;;;;;;;;;7.70;72.10;;;6.57;67.87;95142.06;4234081;33;19958;-86
2022/04/07 01:51:59;;;;;;;;;;;7.70;72.20;;;6.57;67.99;95147.50;4209682;33;20171;-87
2022/04/07 01:54:28;;;;;;;;;;;7.70;72.20;;;6.56;67.86;95149.44;4234965;33;19989;-87
2022/04/07 01:56:58;;;;;;;;;;;7.70;72.20;;;6.56;68.04;95146.72;4235368;33;19910;-86
2022/04/07 01:59:27;;;;;;;;;;;7.70;72.10;;;6.56;67.96;95145.88;4231118;33;20389;-87
2022/04/07 02:01:55;;;;;;;;;;;7.70;72.10;;;6.56;68.04;95135.00;4184480;33;20062;-87
2022/04/07 02:04:24;;;;;;;;;;;7.70;72.10;;;6.55;67.91;95139.63;4184364;33;19914;-86
2022/04/07 02:06:52;;;;;;;;;;;7.70;72.10;;;6.54;68.02;95131.72;4207337;33;20477;-87
2022/04/07 02:09:21;;;;;;;;;;;7.70;72.10;;;6.55;67.63;95133.38;4184192;33;19925;-88
2022/04/07 02:11:49;;;;;;;;;;;7.60;72.00;;;6.55;67.76;95130.66;4207476;33;20210;-86
2022/04/07 02:14:21;;;;;;;;;;;7.60;72.10;;;6.53;67.81;95132.81;4206665;33;19903;-86
2022/04/07 02:16:50;;;;;;;;;;;7.60;72.10;;;6.53;67.76;95119.22;4183374;33;19903;-86
2022/04/07 02:19:19;;;;;;;;;;;7.60;72.00;;;6.54;67.79;95118.97;4184176;33;19910;-87
2022/04/07 02:21:47;;;;;;;;;;;7.60;72.10;;;6.53;68.39;95111.06;4184081;33;20466;-87
2022/04/07 02:24:16;;;;;;;;;;;7.60;72.10;;;6.54;68.00;95121.69;4183927;33;19903;-87
2022/04/07 02:26:44;;;;;;;;;;;7.60;72.00;;;6.54;67.83;95126.28;4183954;33;20142;-87
2022/04/07 02:29:13;;;;;;;;;;;7.60;72.00;;;6.54;67.94;95109.97;4184099;33;20214;-86
2022/04/07 02:31:43;;;;;;;;;;;7.60;72.10;;;6.51;67.90;95102.38;4184093;33;20019;-87
2022/04/07 02:34:11;;;;;;;;;;;7.60;72.10;;;6.53;67.83;95102.91;4183770;33;20058;-86
2022/04/07 02:36:40;;;;;;;;;;;7.70;72.30;;;6.52;67.77;95101.31;4206729;33;19907;-87
2022/04/07 02:39:08;;;;;;;;;;;7.60;72.10;;;6.50;67.85;95107.00;4183902;33;19903;-86
2022/04/07 02:41:36;;;;;;;;;;;7.60;72.00;;;6.51;67.95;95099.66;4207144;33;19926;-86
2022/04/07 02:44:06;;;;;;;;;;;7.60;72.10;;;6.52;67.49;95107.53;4183662;33;20078;-88
2022/04/07 02:46:35;;;;;;;;;;;7.60;72.00;;;6.49;68.23;95112.72;4183620;33;19903;-87
2022/04/07 02:49:05;;;;;;;;;;;7.60;72.10;;;6.51;68.07;95107.81;4183984;33;20090;-87
2022/04/07 02:51:33;;;;;;;;;;;7.60;72.30;;;6.50;67.83;95100.75;4183928;33;19910;-86
2022/04/07 02:54:02;;;;;;;;;;;7.60;72.10;;;6.49;68.20;95089.03;4183790;33;20095;-87
2022/04/07 02:56:30;;;;;;;;;;;7.60;72.10;;;6.49;67.64;95094.47;4183535;33;19910;-87
2022/04/07 02:58:59;;;;;;;;;;;7.60;72.10;;;6.49;67.83;95090.97;4183837;33;20272;-87
2022/04/07 03:01:28;;;;;;;;;;;7.60;72.10;;;6.47;67.98;95083.06;4206851;33;20102;-87
2022/04/07 03:03:56;;;;;;;;;;;7.60;72.10;;;6.47;68.02;95085.78;4183676;33;19902;-87
2022/04/07 03:06:26;;;;;;;;;;;7.60;72.10;;;6.48;68.00;95084.69;4205871;33;19910;-87
2022/04/07 03:08:55;;;;;;;;;;;7.60;72.10;;;6.48;67.74;95089.31;4206861;33;20143;-87
2022/04/07 03:11:23;;;;;;;;;;;7.60;72.10;;;6.48;68.00;95081.16;4183829;33;19975;-87
2022/04/07 03:13:52;;;;;;;;;;;7.60;72.10;;;6.47;67.74;95066.75;4183949;33;19909;-86
2022/04/07 03:16:21;;;;;;;;;;;7.60;72.10;;;6.47;68.06;95063.22;4206689;33;20114;-87
2022/04/07 03:18:49;;;;;;;;;;;7.60;72.10;;;6.47;67.73;95055.06;4183545;33;19970;-87
2022/04/07 03:21:18;;;;;;;;;;;7.60;72.00;;;6.48;68.13;95051.28;4183558;33;19902;-87
2022/04/07 03:23:49;;;;;;;;;;;7.60;72.10;;;6.44;67.98;95051.81;4183286;33;20159;-87
2022/04/07 03:26:18;;;;;;;;;;;7.60;72.10;;;6.45;68.01;95041.75;4206348;33;20032;-87
2022/04/07 03:28:47;;;;;;;;;;;7.60;72.10;;;6.45;67.91;95037.13;4207494;33;20052;-86
2022/04/07 03:31:16;;;;;;;;;;;7.60;72.10;;;6.44;68.03;95034.69;4183370;33;19902;-87
2022/04/07 03:33:44;;;;;;;;;;;7.60;72.10;;;6.43;68.10;95027.63;4183725;33;20047;-87
2022/04/07 03:36:13;;;;;;;;;;;7.60;72.20;;;6.45;67.97;95020.81;4206299;33;19948;-87
2022/04/07 03:38:41;;;;;;;;;;;7.60;72.40;;;6.45;67.78;95020.81;4229878;33;19903;-87
2022/04/07 03:41:11;;;;;;;;;;;7.60;72.20;;;6.44;67.84;95024.63;4230048;33;20079;-87
2022/04/07 03:43:40;;;;;;;;;;;7.60;72.30;;;6.43;68.35;95020.28;4234628;33;20245;-86
2022/04/07 03:46:08;;;;;;;;;;;7.60;72.30;;;6.45;67.97;95011.84;4211074;33;19909;-87
2022/04/07 03:48:37;;;;;;;;;;;7.50;72.30;;;6.43;68.29;94998.53;4211276;33;19902;-86
2022/04/07 03:51:05;;;;;;;;;;;7.60;72.30;;;6.43;68.10;94995.81;4234628;33;19903;-88
2022/04/07 03:53:34;;;;;;;;;;;7.50;72.30;;;6.44;68.20;94980.31;4210897;33;19949;-87
2022/04/07 03:56:03;;;;;;;;;;;7.60;72.20;;;6.43;67.83;94984.94;4234315;33;19910;-86
2022/04/07 03:58:33;;;;;;;;;;;7.50;72.20;;;6.43;68.22;94978.69;4234463;33;20103;-87
2022/04/07 04:01:02;;;;;;;;;;;7.50;72.10;;;6.44;67.74;94974.88;4234411;33;19944;-87
2022/04/07 04:03:31;;;;;;;;;;;7.60;72.20;;;6.44;68.01;94981.13;4234261;33;20097;-86
2022/04/07 04:06:00;;;;;;;;;;;7.50;72.20;;;6.44;68.01;94975.69;4210871;33;19902;-88
2022/04/07 04:08:28;;;;;;;;;;;7.60;72.20;;;6.45;68.02;94984.66;4234264;33;20137;-87
2022/04/07 04:10:57;;;;;;;;;;;7.60;72.10;;;6.43;68.43;94979.50;4234471;33;19909;-86
2022/04/07 04:13:26;;;;;;;;;;;7.60;72.30;;;6.47;67.99;94981.66;4234241;33;19909;-87
2022/04/07 04:15:56;;;;;;;;;;;7.60;72.40;;;6.49;68.28;94976.78;4210919;33;20008;-88
2022/04/07 04:18:25;;;;;;;;;;;7.60;72.20;;;6.50;67.83;94964.81;4210551;33;19902;-87
2022/04/07 04:20:53;;;;;;;;;;;7.60;72.00;;;6.53;67.96;94965.06;4210846;33;19903;-87
2022/04/07 04:23:22;;;;;;;;;;;7.70;71.90;;;6.55;67.82;94975.66;4210750;33;19928;-87
2022/04/07 04:25:50;;;;;;;;;;;7.70;72.00;;;6.57;67.78;94977.03;4210639;33;20145;-86
2022/04/07 04:28:19;;;;;;;;;;;7.70;71.80;;;6.57;68.18;94963.44;4233855;33;19902;-88
2022/04/07 04:30:48;;;;;;;;;;;7.70;71.90;;;6.58;68.27;94965.03;4210401;33;19902;-85
2022/04/07 04:33:18;;;;;;;;;;;7.70;72.10;;;6.55;68.44;94960.19;4210556;33;19909;-86
2022/04/07 04:35:46;;;;;;;;;;;7.70;72.30;;;6.56;68.05;94955.53;4210474;33;19910;-86
2022/04/07 04:38:15;;;;;;;;;;;7.70;72.40;;;6.54;68.61;94938.69;4210233;33;20023;-86
2022/04/07 04:40:43;;;;;;;;;;;7.70;72.60;;;6.55;68.79;94943.03;4210370;33;20103;-86
2022/04/07 04:43:12;;;;;;;;;;;7.70;73.20;;;6.54;69.25;94941.41;4233765;33;20204;-87
2022/04/07 04:45:40;;;;;;;;;;;7.70;73.80;;;6.50;69.21;94946.59;4210739;33;20101;-87
2022/04/07 04:48:09;;;;;;;;;;;7.60;73.50;;;6.52;69.08;94938.16;4233614;33;19902;-88
2022/04/07 04:50:39;;;;;;;;;;;7.60;73.10;;;6.50;68.56;94929.47;4210386;33;20192;-87
2022/04/07 04:53:07;;;;;;;;;;;7.60;73.10;;;6.48;68.79;94931.66;4210296;33;19961;-86
2022/04/07 04:55:36;;;;;;;;;;;7.60;73.10;;;6.50;68.91;94934.91;4210243;33;19910;-86
2022/04/07 04:58:05;;;;;;;;;;;7.60;73.00;;;6.49;68.89;94928.63;4210037;33;20001;-87
2022/04/07 05:00:33;;;;;;;;;;;7.60;73.80;;;6.50;68.43;94926.75;4233888;33;20202;-86
2022/04/07 05:03:02;;;;;;;;;;;7.60;73.00;;;6.47;68.94;94930.81;4233584;33;19909;-88
2022/04/07 05:05:30;;;;;;;;;;;7.60;73.00;;;6.49;68.69;94933.28;4210387;33;19909;-86
2022/04/07 05:08:00;;;;;;;;;;;7.60;73.00;;;6.47;68.26;94924.56;4209975;33;20093;-88
2022/04/07 05:10:29;;;;;;;;;;;7.60;72.50;;;6.48;68.47;94920.78;4210242;33;19917;-87
2022/04/07 05:12:58;;;;;;;;;;;7.60;72.40;;;6.49;68.26;94916.97;4233483;33;19959;-87
2022/04/07 05:15:27;;;;;;;;;;;7.60;72.50;;;6.47;68.39;94905.56;4233590;33;19902;-86
2022/04/07 05:17:55;;;;;;;;;;;7.60;72.60;;;6.47;68.47;94908.25;4233306;33;19902;-87
2022/04/07 05:20:24;;;;;;;;;;;7.60;72.90;;;6.48;68.97;94901.75;4209971;33;19906;-87
2022/04/07 05:22:52;;;;;;;;;;;7.60;73.20;;;6.49;68.58;94903.38;4233478;33;20005;-87
2022/04/07 05:25:22;;;;;;;;;;;7.60;73.20;;;6.49;68.66;94906.09;4210153;33;20156;-87
2022/04/07 05:27:51;;;;;;;;;;;7.60;73.30;;;6.47;69.02;94900.09;4233938;33;20074;-85
2022/04/07 05:30:19;;;;;;;;;;;7.60;73.30;;;6.49;69.18;94901.44;4210063;33;19906;-89
2022/04/07 05:32:48;;;;;;;;;;;7.60;73.30;;;6.50;68.91;94902.28;4233516;33;20158;-87
2022/04/07 05:35:17;;;;;;;;;;;7.60;73.40;;;6.49;69.60;94895.22;4234359;33;19902;-86
2022/04/07 05:37:46;;;;;;;;;;;7.60;73.60;;;6.52;69.26;94906.34;4233427;33;20139;-87
2022/04/07 05:40:14;;;;;;;;;;;7.60;73.40;;;6.50;69.25;94900.38;4209865;33;20033;-88
2022/04/07 05:42:44;;;;;;;;;;;7.60;73.50;;;6.51;69.43;94895.75;4209823;33;19909;-86
2022/04/07 05:45:12;;;;;;;;;;;7.60;73.80;;;6.50;69.93;94891.41;4233513;33;20128;-88
2022/04/07 05:47:41;;;;;;;;;;;7.60;74.20;;;6.53;70.65;94897.09;4209622;33;19902;-87
2022/04/07 05:50:10;;;;;;;;;;;7.60;74.80;;;6.54;70.65;94892.47;4209987;33;19909;-88
2022/04/07 05:52:39;;;;;;;;;;;7.60;74.90;;;6.52;70.27;94887.31;4233390;33;20114;-87
2022/04/07 05:55:08;;;;;;;;;;;7.70;75.00;;;6.55;70.56;94888.66;4210067;33;20073;-87
2022/04/07 05:57:37;;;;;;;;;;;7.70;75.20;;;6.55;70.71;94888.66;4209689;33;19910;-87
2022/04/07 06:00:10;;;;;;;;;;;7.70;75.20;;;6.56;71.04;94874.81;4209851;33;19902;-86
2022/04/07 06:02:38;;;;;;;;;;;7.70;75.40;;;6.55;71.27;94865.00;4209820;33;19974;-87
2022/04/07 06:05:08;;;;;;;;;;;7.70;75.30;;;6.59;71.06;94867.97;4210268;33;19902;-88
2022/04/07 06:07:37;;;;;;;;;;;7.70;75.30;;;6.58;70.61;94863.63;4209525;33;20051;-87
2022/04/07 06:10:06;;;;;;;;;;;7.70;75.30;;;6.59;70.39;94862.53;4209698;33;20354;-86
2022/04/07 06:12:34;;;;;;;;;;;7.70;75.30;;;6.59;70.93;94857.91;4209916;33;20002;-87
2022/04/07 06:15:04;;;;;;;;;;;7.70;75.30;;;6.61;71.13;94854.94;4233379;33;19909;-86
2022/04/07 06:17:35;;;;;;;;;;;7.70;75.30;;;6.62;71.03;94851.13;4209600;33;19902;-87
2022/04/07 06:20:06;;;;;;;;;;;7.80;75.30;;;6.63;71.06;94841.88;4209501;33;20060;-87
2022/04/07 06:22:34;;;;;;;;;;;7.80;75.30;;;6.65;71.05;94838.84;4209756;33;19909;-87
2022/04/07 06:25:03;;;;;;;;;;;7.80;75.30;;;6.66;70.96;94835.06;4209737;33;20156;-87
2022/04/07 06:27:36;;;;;;;;;;;7.80;75.30;;;6.68;70.84;94830.16;4209530;33;19917;-88
2022/04/07 06:30:05;;;;;;;;;;;7.80;75.20;;;6.67;71.11;94821.16;4233017;33;20075;-85
2022/04/07 06:32:35;;;;;;;;;;;7.80;75.20;;;6.71;71.04;94819.53;4205133;33;19902;-87
2022/04/07 06:35:05;;;;;;;;;;;7.80;75.10;;;6.72;70.79;94821.16;4204842;33;19910;-87
2022/04/07 06:37:33;;;;;;;;;;;7.90;75.20;;;6.73;70.69;94808.34;4204857;33;20126;-87
2022/04/07 06:40:02;;;;;;;;;;;7.80;74.90;;;6.74;70.86;94810.81;4181922;33;20161;-87
2022/04/07 06:42:30;;;;;;;;;;;7.90;75.10;;;6.78;70.73;94808.34;4207456;33;20303;-87
2022/04/07 06:44:59;;;;;;;;;;;7.90;75.00;;;6.82;70.34;94808.56;4184083;33;19902;-87
2022/04/07 06:47:27;;;;;;;;;;;7.90;74.80;;;6.84;70.02;94799.03;4207133;33;19907;-88
2022/04/07 06:49:57;;;;;;;;;;;7.90;74.70;;;6.86;70.26;94796.84;4206996;33;20233;-88
2022/04/07 06:52:26;;;;;;;;;;;8.00;74.60;;;6.89;70.29;94795.50;4185233;33;20065;-87
2022/04/07 06:54:54;;;;;;;;;;;8.00;74.50;;;7.00;70.21;94799.78;4211801;33;19902;-87
2022/04/07 06:57:23;;;;;;;;;;;8.10;74.70;;;7.11;69.56;94797.78;4211657;33;19908;-88
2022/04/07 06:59:51;;;;;;;;;;;8.10;74.40;;;7.20;69.34;94806.16;4211933;33;19902;-89
2022/04/07 07:02:20;;;;;;;;;;;8.20;73.90;;;7.21;69.10;94796.88;4211806;33;20385;-89
2022/04/07 07:04:48;;;;;;;;;;;8.30;73.60;;;7.25;69.10;94780.78;4212004;33;19909;-87
2022/04/07 07:07:19;;;;;;;;;;;8.30;73.60;;;7.32;68.97;94787.53;4211772;33;20225;-87
2022/04/07 07:09:49;;;;;;;;;;;8.40;73.50;;;7.41;69.15;94787.75;4235395;33;20116;-87
2022/04/07 07:12:18;;;;;;;;;;;8.40;73.20;;;7.47;68.85;94785.78;4212296;33;20118;-88
2022/04/07 07:14:47;;;;;;;;;;;8.50;72.90;;;7.54;68.20;94778.13;4211714;33;19902;-88
2022/04/07 07:17:16;;;;;;;;;;;8.60;72.70;;;7.60;68.24;94776.97;4211679;33;19911;-88
2022/04/07 07:19:44;;;;;;;;;;;8.60;72.40;;;7.62;67.69;94774.75;4235266;33;19976;-86
2022/04/07 07:22:13;;;;;;;;;;;8.70;72.40;;;7.68;67.71;94768.16;4235221;33;20165;-88
2022/04/07 07:24:43;;;;;;;;;;;8.70;72.10;;;7.71;67.63;94764.06;4211689;33;20297;-88
2022/04/07 07:27:12;;;;;;;;;;;8.70;72.00;;;7.71;67.11;94765.97;4211715;33;20119;-88
2022/04/07 07:29:41;;;;;;;;;;;8.80;71.80;;;7.74;67.53;94759.94;4211889;33;19971;-88
2022/04/07 07:32:09;;;;;;;;;;;8.80;71.70;;;7.74;67.57;94755.31;4211879;33;20382;-86
2022/04/07 07:34:38;;;;;;;;;;;8.80;71.70;;;7.73;67.29;94756.41;4235943;33;20007;-88
2022/04/07 07:37:06;;;;;;;;;;;8.80;71.60;;;7.70;67.35;94748.00;4211717;33;20007;-88
2022/04/07 07:39:35;;;;;;;;;;;8.80;71.60;;;7.67;67.90;94749.38;4207187;33;19903;-88
2022/04/07 07:42:05;;;;;;;;;;;8.80;71.70;;;7.62;67.75;94752.16;4183672;33;19903;-88
2022/04/07 07:44:34;;;;;;;;;;;8.80;71.80;;;7.57;67.90;94744.84;4183863;33;19910;-88
2022/04/07 07:47:03;;;;;;;;;;;8.70;72.00;;;7.53;68.23;94746.53;4183462;33;19910;-87
2022/04/07 07:49:31;;;;;;;;;;;8.70;72.10;;;7.52;67.86;94742.19;4206723;33;19909;-88
2022/04/07 07:52:00;;;;;;;;;;;8.70;73.10;;;7.47;68.26;94744.94;4206818;33;20149;-86
2022/04/07 07:54:28;;;;;;;;;;;8.60;72.30;;;7.46;67.83;94743.31;4183585;33;20074;-87
2022/04/07 07:56:57;;;;;;;;;;;8.60;72.40;;;7.43;68.25;94738.44;4206919;33;20233;-88
2022/04/07 07:59:27;;;;;;;;;;;8.60;72.50;;;7.39;68.72;94742.84;4190645;33;19954;-88
2022/04/07 08:01:55;;;;;;;;;;;8.50;72.60;;;7.36;68.69;94741.50;4183916;33;19966;-88
2022/04/07 08:04:24;;;;;;;;;;;8.50;72.70;;;7.33;69.05;94737.44;4193655;33;19913;-89
2022/04/07 08:06:53;;;;;;;;;;;8.50;72.80;;;7.31;68.41;94736.91;4234632;33;19902;-88
2022/04/07 08:09:21;;;;;;;;;;;8.50;72.90;;;7.29;68.96;94730.13;4211353;33;19910;-89
2022/04/07 08:11:50;;;;;;;;;;;8.50;73.10;;;7.25;69.04;94726.34;4211677;33;19902;-87
2022/04/07 08:14:19;;;;;;;;;;;8.40;73.10;;;7.25;69.23;94724.47;4211319;33;19902;-88
2022/04/07 08:16:49;;;;;;;;;;;8.40;73.10;;;7.22;69.24;94720.41;4210934;33;19903;-88
2022/04/07 08:19:18;;;;;;;;;;;8.40;73.40;;;7.21;69.15;94723.41;4235669;33;19902;-87
2022/04/07 08:21:48;;;;;;;;;;;8.40;73.40;;;7.21;69.33;94721.50;4234615;33;19902;-87
2022/04/07 08:24:19;;;;;;;;;;;8.40;73.50;;;7.20;69.34;94722.59;4211136;33;19902;-87
2022/04/07 08:26:50;;;;;;;;;;;8.40;73.60;;;7.20;69.40;94729.94;4210929;33;19917;-89
2022/04/07 08:29:20;;;;;;;;;;;8.30;73.70;;;7.20;69.13;94729.94;4211250;33;19902;-89
2022/04/07 08:31:51;;;;;;;;;;;8.30;73.60;;;7.17;69.53;94719.63;4234689;33;19957;-87
2022/04/07 08:34:25;;;;;;;;;;;8.30;73.70;;;7.17;69.40;94722.34;4211135;33;19979;-88
2022/04/07 08:36:56;;;;;;;;;;;8.30;73.70;;;7.18;69.30;94718.53;4211239;33;19909;-88
2022/04/07 08:39:27;;;;;;;;;;;8.30;73.70;;;7.16;69.37;94720.75;4211030;33;19902;-88
2022/04/07 08:41:56;;;;;;;;;;;8.30;73.80;;;7.15;69.35;94711.75;4211358;33;19909;-88
2022/04/07 08:44:31;;;;;;;;;;;8.30;73.80;;;7.13;69.42;94718.59;4210872;33;19902;-88
2022/04/07 08:47:01;;;;;;;;;;;8.30;73.80;;;7.11;69.32;94709.88;4210834;33;19910;-87
2022/04/07 08:49:32;;;;;;;;;;;8.30;73.90;;;7.12;69.73;94709.59;4210994;33;19902;-87
2022/04/07 08:52:00;;;;;;;;;;;8.30;74.00;;;7.11;69.56;94713.41;4234386;33;19903;-87
2022/04/07 08:54:30;;;;;;;;;;;8.20;73.90;;;7.11;69.52;94705.25;4210762;33;19903;-88
2022/04/07 08:57:08;;;;;;;;;;;8.20;74.00;;;7.10;69.95;94705.53;4210267;33;19902;-89
2022/04/07 08:59:37;;;;;;;;;;;8.20;74.10;;;7.05;69.84;94696.31;4210858;33;20137;-88
2022/04/07 09:02:11;;;;;;;;;;;8.20;74.00;;;7.06;70.36;94700.66;4234053;33;19902;-88
2022/04/07 09:04:41;;;;;;;;;;;8.20;74.10;;;7.06;69.67;94692.50;4209966;33;20035;-89
2022/04/07 09:07:12;;;;;;;;;;;8.20;74.20;;;7.03;70.15;94682.22;4210443;33;19902;-88
2022/04/07 09:09:41;;;;;;;;;;;8.20;74.20;;;7.01;69.68;94673.53;4210722;33;19902;-88
2022/04/07 09:12:10;;;;;;;;;;;8.20;74.30;;;7.02;70.13;94672.41;4234226;33;20156;-87
2022/04/07 09:14:40;;;;;;;;;;;8.20;74.40;;;7.00;69.93;94671.88;4210661;33;19903;-89
2022/04/07 09:17:12;;;;;;;;;;;8.10;74.40;;;7.01;69.82;94670.78;4210328;33;20236;-89
2022/04/07 09:19:41;;;;;;;;;;;8.10;75.30;;;6.97;70.29;94664.28;4210892;33;19902;-89
2022/04/07 09:22:37;;;;;;;;;;;8.10;74.60;;;7.00;70.22;94671.06;4234615;33;19902;-89
2022/04/07 09:25:07;;;;;;;;;;;8.10;74.50;;;6.99;70.17;94662.09;4233986;33;19952;-87
2022/04/07 09:33:26;;;;;;;;;;;8.10;74.70;;;6.98;69.87;94641.44;4205909;33;20259;-88
2022/04/07 09:36:58;;;;;;;;;;;8.10;74.60;;;6.97;70.54;94623.50;4184159;33;19903;-88
2022/04/07 09:39:39;;;;;;;;;;;8.10;74.80;;;6.97;70.55;94603.66;4168164;33;20453;-88
2022/04/07 09:42:22;;;;;;;;;;;8.10;74.80;;;6.96;70.38;94597.38;4182704;33;19909;-89
2022/04/07 09:44:52;;;;;;;;;;;8.10;74.70;;;6.99;70.33;94591.38;4182354;33;19903;-88
2022/04/07 09:47:21;;;;;;;;;;;8.10;74.80;;;6.97;70.38;94590.84;4205524;33;20067;-88
2022/04/07 09:49:51;;;;;;;;;;;8.10;74.80;;;6.99;70.54;94580.47;4205487;33;20081;-88
2022/04/07 09:52:22;;;;;;;;;;;8.10;74.70;;;6.99;70.31;94579.66;4205644;33;20026;-90
2022/04/07 09:54:52;;;;;;;;;;;8.10;74.70;;;7.00;70.57;94573.94;4205563;33;19910;-87
2022/04/07 09:57:21;;;;;;;;;;;8.10;74.80;;;7.03;70.28;94578.81;4182177;33;19941;-87
2022/04/07 09:59:50;;;;;;;;;;;8.10;74.70;;;7.04;69.92;94572.25;4182412;33;19919;-89
2022/04/07 10:02:18;;;;;;;;;;;8.20;74.70;;;7.05;69.99;94568.44;4182166;33;20019;-89
2022/04/07 10:04:47;;;;;;;;;;;8.20;74.60;;;7.06;69.94;94571.97;4182264;33;19903;-88
2022/04/07 10:07:18;;;;;;;;;;;8.20;74.60;;;7.07;70.25;94558.06;4202107;33;19903;-88
2022/04/07 10:09:46;;;;;;;;;;;8.20;74.50;;;7.07;70.36;94558.06;4210212;33;19902;-89
2022/04/07 10:12:15;;;;;;;;;;;8.20;74.50;;;7.09;70.19;94557.81;4210226;33;20396;-88
2022/04/07 10:14:45;;;;;;;;;;;8.20;74.50;;;7.10;70.62;94556.69;4210947;33;19909;-89
2022/04/07 10:17:14;;;;;;;;;;;8.20;74.50;;;7.12;70.13;94553.69;4212371;33;20080;-88
2022/04/07 10:19:48;;;;;;;;;;;8.20;74.50;;;7.13;69.92;94550.66;4213065;33;19913;-89
2022/04/07 10:22:42;;;;;;;;;;;8.20;74.40;;;7.13;70.06;94549.88;4236248;33;20160;-88
2022/04/07 10:25:11;;;;;;;;;;;8.30;74.50;;;7.14;70.27;94551.50;4212592;33;20118;-88
2022/04/07 10:27:43;;;;;;;;;;;8.30;74.40;;;7.14;69.75;94548.78;4235825;33;19909;-88
2022/04/07 10:30:13;;;;;;;;;;;8.20;74.40;;;7.12;70.02;94540.09;4212430;33;21282;-89
2022/04/07 10:32:42;;;;;;;;;;;8.20;74.40;;;7.12;70.32;94549.03;4236178;33;19910;-89
2022/04/07 10:35:12;;;;;;;;;;;8.30;74.50;;;7.12;70.15;94548.25;4212732;33;19910;-88
2022/04/07 10:37:49;;;;;;;;;;;8.20;74.40;;;7.12;70.40;94553.69;4235797;33;20116;-88
2022/04/07 10:40:44;;;;;;;;;;;8.20;74.40;;;7.11;70.26;94549.34;4212246;33;19909;-89
2022/04/07 10:43:23;;;;;;;;;;;8.20;74.50;;;7.11;70.29;94552.84;4212195;33;20218;-87
2022/04/07 10:45:52;;;;;;;;;;;8.20;74.50;;;7.13;69.93;94555.31;4235924;33;20162;-88
2022/04/07 10:48:29;;;;;;;;;;;8.20;74.50;;;7.09;70.27;94551.53;4235708;33;20129;-88
2022/04/07 10:50:59;;;;;;;;;;;8.20;74.50;;;7.09;70.18;94554.25;4212593;33;19902;-88
2022/04/07 10:53:32;;;;;;;;;;;8.20;74.60;;;7.11;70.23;94552.06;4212561;33;19917;-88
2022/04/07 10:56:12;;;;;;;;;;;8.20;74.60;;;7.11;70.13;94558.31;4212159;33;20009;-89
2022/04/07 10:58:48;;;;;;;;;;;8.20;74.60;;;7.10;70.58;94545.78;4211977;33;20106;-88
2022/04/07 11:01:52;;;;;;;;;;;8.20;74.60;;;7.08;70.68;94537.13;4212593;33;20374;-88
2022/04/07 11:05:08;;;;;;;;;;;8.20;74.60;;;7.09;70.36;94538.75;4205280;33;20117;-88
2022/04/07 11:07:37;;;;;;;;;;;8.20;74.70;;;7.08;70.73;94537.13;4235496;33;19903;-87
2022/04/07 11:10:14;;;;;;;;;;;8.20;74.70;;;7.09;70.37;94527.88;4235405;33;19909;-88
2022/04/07 11:12:44;;;;;;;;;;;8.20;74.70;;;7.07;70.40;94530.88;4211980;33;19925;-88
2022/04/07 11:15:51;;;;;;;;;;;8.20;74.80;;;7.06;70.79;94529.25;4212108;33;19909;-87
2022/04/07 11:19:09;;;;;;;;;;;8.20;74.70;;;7.07;70.61;94525.44;4211873;33;19963;-93
2022/04/07 11:21:46;;;;;;;;;;;8.20;74.80;;;7.06;70.53;94523.81;4165856;33;19909;-87
2022/04/07 11:24:26;;;;;;;;;;;8.20;74.80;;;7.09;70.77;94527.03;4211670;33;20031;-89
2022/04/07 11:26:56;;;;;;;;;;;8.20;74.80;;;7.06;70.91;94523.81;4234507;33;19917;-87
2022/04/07 11:29:32;;;;;;;;;;;8.20;74.80;;;7.06;70.84;94520.28;4211648;33;20013;-87
2022/04/07 11:32:08;;;;;;;;;;;8.20;74.80;;;7.04;70.57;94519.75;4235176;33;20275;-88
2022/04/07 11:35:00;;;;;;;;;;;8.20;74.90;;;7.05;70.86;94516.75;4235185;33;20324;-88
2022/04/07 11:37:30;;;;;;;;;;;8.20;75.00;;;7.03;70.45;94513.53;4211597;33;19909;-89
2022/04/07 11:39:59;;;;;;;;;;;8.20;75.00;;;7.03;70.52;94515.41;4235097;33;20003;-88
2022/04/07 11:42:31;;;;;;;;;;;8.20;75.00;;;7.03;70.92;94524.41;4211706;33;19902;-88
2022/04/07 11:45:02;;;;;;;;;;;8.20;75.00;;;7.04;70.85;94522.47;4211740;33;19903;-88
2022/04/07 11:47:34;;;;;;;;;;;8.20;75.00;;;7.03;70.22;94523.56;4234918;33;20057;-88
2022/04/07 11:50:03;;;;;;;;;;;8.20;75.00;;;7.03;70.78;94520.84;4211405;33;20019;-87
2022/04/07 11:52:32;;;;;;;;;;;8.20;75.10;;;7.05;70.40;94529.53;4211686;33;19909;-88
2022/04/07 11:55:02;;;;;;;;;;;8.20;75.10;;;7.03;70.71;94516.25;4234593;33;20100;-88
2022/04/07 11:57:33;;;;;;;;;;;8.20;75.20;;;7.04;70.59;94530.66;4234657;33;20158;-88
2022/04/07 12:00:04;;;;;;;;;;;8.20;75.10;;;7.02;70.64;94533.66;4210826;33;19902;-86
2022/04/07 12:02:40;;;;;;;;;;;8.20;75.10;;;7.04;70.41;94534.16;4234705;33;20167;-87
2022/04/07 12:05:11;;;;;;;;;;;8.20;75.20;;;7.04;70.92;94542.31;4216584;28;19910;-82
2022/04/07 12:07:40;;;;;;;;;;;8.10;75.20;;;7.04;71.06;94545.03;4111535;34;19919;-81
2022/04/07 12:10:10;;;;;;;;;;;8.20;75.20;;;7.05;70.82;94540.44;4123277;34;20126;-81
2022/04/07 12:12:41;;;;;;;;;;;8.20;75.20;;;7.06;70.81;94544.78;4123294;34;20074;-82